createdAt,value
2019-05-16T00:01:19.352Z,24.63
2019-05-16T00:03:49.158Z,25.20
2019-05-16T00:06:18.628Z,21.27
2019-05-16T00:08:48.363Z,21.60
2019-05-16T00:11:18.103Z,21.40
2019-05-16T00:13:48.838Z,20.20
2019-05-16T00:16:18.991Z,17.10
2019-05-16T00:18:48.504Z,17.97
2019-05-16T00:21:18.649Z,19.17
2019-05-16T00:23:48.684Z,18.50
2019-05-16T00:26:19.768Z,16.33
2019-05-16T00:28:49.534Z,19.97
2019-05-16T00:31:18.869Z,21.87
2019-05-16T00:33:49.073Z,20.90
2019-05-16T00:36:20.011Z,19.07
2019-05-16T00:38:49.398Z,20.47
2019-05-16T00:41:18.717Z,22.17
2019-05-16T00:43:48.565Z,21.07
2019-05-16T00:46:20.123Z,21.23
2019-05-16T00:48:55.391Z,19.73
2019-05-16T00:51:24.867Z,15.70
2019-05-16T00:53:54.310Z,17.80
2019-05-16T00:56:23.983Z,15.87
2019-05-16T00:58:54.310Z,16.43
2019-05-16T01:01:23.740Z,16.80
2019-05-16T01:03:53.194Z,16.37
2019-05-16T01:06:23.229Z,16.20
2019-05-16T01:08:52.803Z,15.10
2019-05-16T01:11:22.227Z,15.40
2019-05-16T01:13:51.807Z,17.37
2019-05-16T01:16:21.166Z,14.67
2019-05-16T01:18:53.882Z,13.90
2019-05-16T01:21:23.394Z,13.70
2019-05-16T01:23:52.696Z,14.43
2019-05-16T01:26:22.070Z,12.00
2019-05-16T01:28:51.485Z,11.60
2019-05-16T01:31:20.848Z,11.37
2019-05-16T01:33:50.147Z,11.50
2019-05-16T01:36:33.393Z,14.43
2019-05-16T01:38:50.550Z,18.43
2019-05-16T01:41:19.895Z,17.90
2019-05-16T01:43:49.274Z,22.20
2019-05-16T01:46:18.854Z,21.07
2019-05-16T01:49:00.438Z,22.50
2019-05-16T01:51:29.824Z,23.10
2019-05-16T01:53:59.185Z,19.27
2019-05-16T01:56:28.632Z,18.27
2019-05-16T01:58:58.361Z,18.47
2019-05-16T02:01:28.846Z,19.40
2019-05-16T02:03:58.789Z,21.20
2019-05-16T02:06:28.825Z,15.87
2019-05-16T02:08:58.370Z,16.30
2019-05-16T02:11:28.491Z,20.70
2019-05-16T02:13:58.560Z,17.73
2019-05-16T02:16:28.207Z,16.97
2019-05-16T02:19:03.655Z,16.20
2019-05-16T02:21:32.954Z,17.07
2019-05-16T02:24:03.274Z,14.30
2019-05-16T02:26:32.612Z,12.40
2019-05-16T02:29:01.919Z,12.80
2019-05-16T02:31:31.508Z,10.67
2019-05-16T02:34:04.527Z,11.73
2019-05-16T02:36:32.002Z,10.57
2019-05-16T02:39:02.138Z,10.50
2019-05-16T02:41:32.006Z,9.37
2019-05-16T02:44:01.463Z,8.60
2019-05-16T02:46:31.091Z,8.70
2019-05-16T02:49:00.963Z,9.63
2019-05-16T02:51:31.458Z,9.10
2019-05-16T02:54:01.535Z,8.43
2019-05-16T02:56:31.758Z,9.23
2019-05-16T02:59:01.800Z,10.00
2019-05-16T03:01:31.801Z,10.53
2019-05-16T03:04:04.410Z,10.93
2019-05-16T03:06:34.803Z,9.10
2019-05-16T03:09:06.545Z,7.47
2019-05-16T03:11:36.636Z,8.43
2019-05-16T03:14:06.184Z,8.63
2019-05-16T03:16:41.531Z,8.43
2019-05-16T03:19:11.417Z,9.73
2019-05-16T03:21:43.298Z,8.33
2019-05-16T03:24:12.815Z,10.23
2019-05-16T03:26:42.220Z,11.13
2019-05-16T03:29:11.596Z,11.13
2019-05-16T03:31:44.476Z,11.30
2019-05-16T03:34:16.189Z,11.13
2019-05-16T03:36:44.389Z,11.13
2019-05-16T03:39:14.029Z,11.80
2019-05-16T03:41:43.354Z,10.40
2019-05-16T03:44:12.722Z,9.90
2019-05-16T03:46:42.105Z,9.63
2019-05-16T03:49:11.581Z,10.17
2019-05-16T03:51:41.604Z,11.57
2019-05-16T03:54:12.491Z,10.13
2019-05-16T03:56:42.084Z,9.17
2019-05-16T03:59:11.342Z,9.00
2019-05-16T04:01:41.184Z,8.33
2019-05-16T04:04:12.022Z,9.97
2019-05-16T04:06:41.954Z,9.87
2019-05-16T04:09:12.448Z,9.70
2019-05-16T04:11:42.884Z,8.87
2019-05-16T04:14:12.540Z,7.87
2019-05-16T04:16:41.944Z,10.23
2019-05-16T04:19:14.037Z,10.47
2019-05-16T04:21:43.374Z,10.37
2019-05-16T04:24:12.796Z,10.43
2019-05-16T04:26:42.151Z,9.37
2019-05-16T04:29:12.142Z,9.80
2019-05-16T04:31:41.895Z,10.67
2019-05-16T04:34:11.946Z,8.83
2019-05-16T04:36:41.662Z,9.27
2019-05-16T04:39:11.822Z,9.10
2019-05-16T04:41:41.713Z,8.80
2019-05-16T04:44:11.886Z,7.80
2019-05-16T04:46:41.572Z,7.97
2019-05-16T04:49:11.483Z,7.77
2019-05-16T04:51:41.633Z,7.67
2019-05-16T04:54:11.730Z,8.13
2019-05-16T04:56:41.597Z,6.63
2019-05-16T04:59:16.340Z,6.90
2019-05-16T05:01:42.155Z,6.10
2019-05-16T05:04:21.133Z,8.53
2019-05-16T05:06:51.287Z,9.73
2019-05-16T05:09:21.167Z,8.43
2019-05-16T05:11:52.004Z,8.90
2019-05-16T05:14:21.639Z,8.13
2019-05-16T05:16:50.982Z,7.33
2019-05-16T05:19:20.453Z,8.30
2019-05-16T05:21:51.420Z,8.23
2019-05-16T05:24:20.671Z,7.50
2019-05-16T05:26:50.397Z,6.83
2019-05-16T05:29:20.155Z,8.60
2019-05-16T05:31:55.146Z,7.20
2019-05-16T05:34:20.995Z,7.50
2019-05-16T05:36:51.157Z,6.80
2019-05-16T05:39:20.993Z,7.17
2019-05-16T05:41:50.913Z,7.67
2019-05-16T05:44:20.510Z,6.00
2019-05-16T05:46:51.172Z,6.37
2019-05-16T05:49:20.889Z,6.40
2019-05-16T05:51:50.234Z,6.00
2019-05-16T05:54:20.434Z,7.37
2019-05-16T05:56:52.449Z,7.70
2019-05-16T05:59:21.700Z,7.50
2019-05-16T06:01:51.797Z,9.03
2019-05-16T06:04:21.505Z,8.20
2019-05-16T06:06:50.794Z,7.10
2019-05-16T06:09:28.524Z,7.27
2019-05-16T06:11:51.260Z,6.53
2019-05-16T06:14:21.213Z,6.30
2019-05-16T06:16:51.023Z,6.63
2019-05-16T06:19:24.200Z,6.67
2019-05-16T06:21:53.513Z,6.30
2019-05-16T06:24:22.866Z,6.10
2019-05-16T06:26:52.967Z,5.90
2019-05-16T06:29:22.403Z,6.70
2019-05-16T06:31:51.754Z,5.93
2019-05-16T06:34:21.162Z,6.03
2019-05-16T06:36:51.004Z,5.33
2019-05-16T06:39:20.577Z,5.80
2019-05-16T06:41:50.884Z,5.30
2019-05-16T06:44:20.781Z,8.23
2019-05-16T06:46:59.953Z,7.83
2019-05-16T06:49:24.085Z,8.60
2019-05-16T06:51:53.332Z,8.73
2019-05-16T06:54:22.645Z,8.23
2019-05-16T06:56:52.916Z,8.30
2019-05-16T06:59:22.276Z,11.57
2019-05-16T07:01:52.481Z,8.30
2019-05-16T07:04:21.832Z,9.73
2019-05-16T07:06:58.617Z,8.00
2019-05-16T07:09:22.319Z,7.57
2019-05-16T07:11:51.683Z,10.13
2019-05-16T07:14:22.778Z,10.47
2019-05-16T07:16:52.321Z,10.27
2019-05-16T07:19:21.623Z,11.07
2019-05-16T07:21:50.999Z,10.37
2019-05-16T07:24:20.381Z,10.23
2019-05-16T07:26:50.249Z,10.63
2019-05-16T07:29:20.626Z,9.63
2019-05-16T07:31:52.337Z,10.77
2019-05-16T07:34:31.200Z,9.57
2019-05-16T07:37:00.615Z,12.70
2019-05-16T07:39:30.660Z,11.17
2019-05-16T07:42:00.401Z,10.43
2019-05-16T07:44:31.033Z,11.50
2019-05-16T07:47:01.226Z,11.63
2019-05-16T07:49:30.718Z,14.00
2019-05-16T07:52:00.627Z,13.90
2019-05-16T07:54:34.453Z,13.43
2019-05-16T07:57:12.299Z,15.40
2019-05-16T07:59:34.009Z,13.20
2019-05-16T08:02:03.338Z,12.30
2019-05-16T08:04:34.105Z,12.17
2019-05-16T08:07:05.775Z,10.57
2019-05-16T08:09:34.509Z,11.73
2019-05-16T08:12:05.931Z,13.73
2019-05-16T08:14:35.322Z,12.90
2019-05-16T08:17:05.074Z,12.63
2019-05-16T08:19:34.370Z,12.03
2019-05-16T08:22:03.746Z,12.40
2019-05-16T08:24:36.120Z,12.03
2019-05-16T08:27:04.141Z,11.50
2019-05-16T08:29:33.443Z,11.07
2019-05-16T08:32:02.878Z,11.47
2019-05-16T08:34:32.465Z,10.23
2019-05-16T08:37:01.744Z,9.80
2019-05-16T08:39:31.362Z,10.00
2019-05-16T08:42:08.040Z,9.50
2019-05-16T08:44:32.637Z,9.30
2019-05-16T08:47:06.146Z,9.97
2019-05-16T08:49:34.805Z,10.13
2019-05-16T08:52:04.191Z,10.00
2019-05-16T08:54:33.639Z,9.80
2019-05-16T08:57:24.397Z,9.57
2019-05-16T08:59:34.317Z,10.07
2019-05-16T09:02:03.752Z,10.87
2019-05-16T09:04:34.209Z,9.00
2019-05-16T09:07:04.387Z,9.40
2019-05-16T09:09:42.333Z,9.70
2019-05-16T09:15:57.249Z,9.70
2019-05-16T09:18:28.984Z,8.83
2019-05-16T09:20:58.146Z,9.50
2019-05-16T09:23:27.857Z,9.83
2019-05-16T09:40:00.937Z,10.43
2019-05-16T09:42:30.628Z,9.40
2019-05-16T09:45:00.030Z,9.83
2019-05-16T09:47:29.533Z,10.17
2019-05-16T09:49:59.081Z,9.63
2019-05-16T09:52:28.567Z,10.53
2019-05-16T09:54:58.002Z,11.07
2019-05-16T09:57:27.929Z,9.33
2019-05-16T09:59:57.530Z,10.30
2019-05-16T10:02:27.567Z,9.93
2019-05-16T10:04:58.004Z,10.50
2019-05-16T10:07:28.475Z,10.03
2019-05-16T10:09:58.161Z,12.57
2019-05-16T10:12:27.527Z,11.73
2019-05-16T10:14:59.796Z,11.17
2019-05-16T10:17:29.673Z,10.33
2019-05-16T10:20:02.371Z,12.50
2019-05-16T10:22:32.104Z,12.00
2019-05-16T10:25:01.581Z,12.13
2019-05-16T10:27:30.887Z,12.93
2019-05-16T10:30:01.017Z,12.80
2019-05-16T10:32:31.007Z,12.50
2019-05-16T10:35:00.306Z,12.70
2019-05-16T10:37:29.684Z,13.53
2019-05-16T10:40:00.010Z,12.27
2019-05-16T10:42:29.661Z,13.93
2019-05-16T10:44:58.959Z,12.23
2019-05-16T10:47:31.110Z,12.77
2019-05-16T10:49:59.384Z,14.20
2019-05-16T10:52:28.773Z,12.93
2019-05-16T10:55:02.141Z,12.40
2019-05-16T10:57:30.014Z,12.73
2019-05-16T11:00:09.670Z,14.00
2019-05-16T11:02:30.817Z,14.90
2019-05-16T11:05:20.539Z,15.40
2019-05-16T11:07:32.276Z,13.20
2019-05-16T11:10:03.529Z,12.33
2019-05-16T11:12:46.064Z,13.87
2019-05-16T11:15:10.782Z,13.00
2019-05-16T11:17:37.254Z,12.60
2019-05-16T11:20:07.984Z,12.20
2019-05-16T11:22:37.381Z,13.73
2019-05-16T11:25:20.746Z,12.53
2019-05-16T11:27:38.662Z,12.47
2019-05-16T11:30:09.304Z,18.73
2019-05-16T11:32:38.884Z,15.27
2019-05-16T11:35:09.160Z,13.37
2019-05-16T11:37:38.563Z,13.57
2019-05-16T11:40:09.152Z,14.30
2019-05-16T11:42:38.726Z,13.87
2019-05-16T11:45:10.566Z,12.90
2019-05-16T11:47:40.192Z,13.47
2019-05-16T11:50:10.099Z,13.30
2019-05-16T11:52:40.898Z,14.37
2019-05-16T11:55:10.806Z,13.67
2019-05-16T11:57:40.183Z,14.60
2019-05-16T12:00:11.936Z,13.87
2019-05-16T12:02:42.836Z,12.93
2019-05-16T12:05:12.724Z,13.70
2019-05-16T12:07:44.319Z,14.30
2019-05-16T12:10:16.290Z,15.93
2019-05-16T12:12:45.149Z,14.63
2019-05-16T12:15:17.494Z,14.33
2019-05-16T12:17:59.081Z,14.57
2019-05-16T12:20:16.928Z,12.40
2019-05-16T12:22:46.252Z,13.67
2019-05-16T12:25:16.831Z,14.47
2019-05-16T12:27:48.119Z,13.57
2019-05-16T12:30:18.293Z,14.00
2019-05-16T12:32:47.635Z,14.10
2019-05-16T12:35:17.747Z,13.77
2019-05-16T12:37:48.172Z,14.20
2019-05-16T12:40:18.219Z,17.03
2019-05-16T12:42:47.624Z,15.00
2019-05-16T12:45:18.013Z,14.87
2019-05-16T12:47:47.472Z,13.13
2019-05-16T12:50:17.969Z,11.50
2019-05-16T12:52:47.644Z,11.20
2019-05-16T12:55:18.023Z,13.93
2019-05-16T12:57:49.048Z,14.50
2019-05-16T13:00:19.512Z,12.90
2019-05-16T13:02:49.062Z,14.83
2019-05-16T13:05:20.150Z,13.27
2019-05-16T13:07:49.465Z,14.00
2019-05-16T13:10:19.380Z,14.00
2019-05-16T13:12:48.779Z,13.87
2019-05-16T13:15:18.469Z,12.67
2019-05-16T13:17:47.809Z,13.00
2019-05-16T13:20:17.884Z,13.60
2019-05-16T13:22:47.509Z,15.63
2019-05-16T13:25:18.460Z,13.53
2019-05-16T13:27:47.943Z,14.20
2019-05-16T13:30:18.860Z,13.93
2019-05-16T13:32:48.229Z,13.53
2019-05-16T13:35:17.630Z,13.83
2019-05-16T13:37:47.656Z,14.73
2019-05-16T13:40:19.032Z,13.37
2019-05-16T13:42:48.572Z,13.97
2019-05-16T13:45:18.129Z,13.10
2019-05-16T13:47:48.789Z,13.13
2019-05-16T13:50:19.395Z,13.23
2019-05-16T13:52:48.687Z,12.83
2019-05-16T13:55:18.557Z,13.47
2019-05-16T13:57:47.986Z,12.87
2019-05-16T14:00:17.902Z,13.50
2019-05-16T14:02:47.188Z,18.00
2019-05-16T14:05:17.902Z,13.47
2019-05-16T14:07:48.187Z,13.40
2019-05-16T14:10:18.545Z,13.50
2019-05-16T14:12:50.282Z,13.67
2019-05-16T14:15:19.395Z,13.97
2019-05-16T14:17:49.179Z,12.00
2019-05-16T14:20:19.062Z,13.07
2019-05-16T14:22:48.380Z,12.30
2019-05-16T14:25:17.739Z,11.67
2019-05-16T14:27:47.619Z,11.60
2019-05-16T14:30:17.922Z,12.50
2019-05-16T14:32:50.714Z,13.40
2019-05-16T14:35:18.633Z,11.50
2019-05-16T14:37:47.952Z,12.73
2019-05-16T14:40:17.969Z,13.97
2019-05-16T14:42:48.098Z,14.30
2019-05-16T14:45:19.002Z,13.63
2019-05-16T14:47:49.688Z,12.60
2019-05-16T14:50:19.647Z,13.67
2019-05-16T14:52:49.024Z,12.47
2019-05-16T14:55:18.954Z,15.27
2019-05-16T14:57:48.344Z,14.70
2019-05-16T15:00:18.955Z,13.70
2019-05-16T15:02:48.525Z,16.73
2019-05-16T15:05:19.479Z,14.37
2019-05-16T15:07:48.814Z,13.90
2019-05-16T15:10:18.685Z,13.23
2019-05-16T15:12:48.105Z,12.17
2019-05-16T15:15:24.269Z,12.03
2019-05-16T15:17:52.767Z,15.93
2019-05-16T15:20:23.143Z,17.00
2019-05-16T15:22:52.550Z,15.57
2019-05-16T15:25:21.848Z,14.30
2019-05-16T15:27:51.467Z,14.97
2019-05-16T15:30:22.555Z,16.10
2019-05-16T15:32:51.939Z,17.73
2019-05-16T15:35:23.160Z,16.50
2019-05-16T15:37:52.548Z,14.77
2019-05-16T15:40:22.296Z,16.17
2019-05-16T15:42:51.799Z,17.67
2019-05-16T15:45:35.826Z,19.43
2019-05-16T15:47:59.620Z,19.20
2019-05-16T15:50:28.164Z,18.50
2019-05-16T15:52:59.243Z,18.27
2019-05-16T15:55:29.305Z,19.53
2019-05-16T15:58:19.534Z,19.23
2019-05-16T16:00:49.645Z,18.27
2019-05-16T16:03:19.542Z,19.20
2019-05-16T16:05:49.500Z,18.80
2019-05-16T16:08:18.892Z,55.90
2019-05-16T16:10:48.319Z,28.07
2019-05-16T16:13:19.836Z,20.10
2019-05-16T16:15:54.052Z,18.80
2019-05-16T16:18:21.892Z,17.60
2019-05-16T16:20:51.675Z,17.53
2019-05-16T16:23:21.120Z,18.97
2019-05-16T16:25:51.631Z,17.43
2019-05-16T16:28:21.442Z,19.53
2019-05-16T16:30:50.810Z,21.93
2019-05-16T16:33:25.805Z,19.83
2019-05-16T16:35:51.274Z,17.67
2019-05-16T16:38:20.611Z,15.40
2019-05-16T16:40:50.027Z,15.83
2019-05-16T16:43:19.424Z,18.17
2019-05-16T16:45:49.507Z,17.67
2019-05-16T16:48:18.847Z,17.17
2019-05-16T16:51:03.320Z,15.87
2019-05-16T16:53:32.731Z,45.87
2019-05-16T16:56:02.140Z,18.67
2019-05-16T16:58:31.540Z,16.33
2019-05-16T17:01:01.671Z,17.00
2019-05-16T17:03:31.102Z,16.60
2019-05-16T17:06:00.376Z,16.40
2019-05-16T17:08:29.753Z,16.83
2019-05-16T17:10:59.157Z,17.30
2019-05-16T17:13:28.666Z,16.43
2019-05-16T17:15:58.041Z,14.90
2019-05-16T17:18:27.723Z,16.20
2019-05-16T17:20:57.419Z,18.37
2019-05-16T17:23:26.729Z,19.90
2019-05-16T17:25:56.629Z,17.13
2019-05-16T17:28:26.509Z,16.50
2019-05-16T17:30:56.759Z,16.37
2019-05-16T17:33:28.496Z,15.90
2019-05-16T17:35:57.282Z,18.27
2019-05-16T17:38:26.847Z,18.93
2019-05-16T17:40:56.936Z,18.80
2019-05-16T17:43:26.989Z,19.53
2019-05-16T17:45:57.560Z,18.50
2019-05-16T17:48:29.719Z,16.80
2019-05-16T17:50:58.314Z,17.30
2019-05-16T17:53:27.675Z,18.17
2019-05-16T17:55:57.433Z,18.87
2019-05-16T17:58:27.146Z,17.23
2019-05-16T18:01:00.053Z,20.53
2019-05-16T18:03:27.682Z,21.03
2019-05-16T18:05:56.944Z,21.13
2019-05-16T18:08:26.313Z,21.10
2019-05-16T18:10:56.499Z,20.53
2019-05-16T18:13:26.181Z,19.80
2019-05-16T18:15:56.776Z,21.17
2019-05-16T18:18:26.963Z,20.80
2019-05-16T18:21:01.588Z,20.63
2019-05-16T18:23:27.613Z,20.17
2019-05-16T18:25:57.676Z,18.93
2019-05-16T18:28:27.229Z,21.30
2019-05-16T18:30:56.889Z,33.60
2019-05-16T18:33:27.558Z,22.67
2019-05-16T18:35:57.990Z,23.30
2019-05-16T18:38:28.732Z,24.50
2019-05-16T18:40:58.248Z,19.77
2019-05-16T18:43:27.758Z,19.57
2019-05-16T18:45:57.133Z,21.87
2019-05-16T18:48:27.757Z,20.53
2019-05-16T18:50:57.915Z,20.80
2019-05-16T18:53:27.796Z,22.80
2019-05-16T18:55:57.532Z,22.27
2019-05-16T18:58:27.128Z,21.57
2019-05-16T19:00:56.560Z,22.73
2019-05-16T19:03:27.088Z,27.50
2019-05-16T19:05:57.340Z,33.43
2019-05-16T19:08:27.199Z,35.50
2019-05-16T19:10:59.812Z,32.53
2019-05-16T19:13:27.968Z,34.73
2019-05-16T19:15:57.427Z,26.73
2019-05-16T19:18:26.852Z,28.67
2019-05-16T19:20:57.071Z,34.60
2019-05-16T19:23:27.067Z,29.17
2019-05-16T19:25:58.410Z,27.03
2019-05-16T19:28:28.612Z,33.33
2019-05-16T19:30:58.791Z,31.87
2019-05-16T19:33:28.235Z,31.80
2019-05-16T19:35:57.636Z,31.03
2019-05-16T19:38:29.298Z,31.03
2019-05-16T19:40:59.823Z,34.23
2019-05-16T19:43:29.279Z,32.40
2019-05-16T19:45:59.058Z,31.43
2019-05-16T19:48:28.707Z,32.73
2019-05-16T19:50:58.840Z,31.67
2019-05-16T19:53:28.345Z,31.70
2019-05-16T19:55:57.755Z,30.00
2019-05-16T19:58:27.226Z,32.50
2019-05-16T20:00:57.358Z,31.77
2019-05-16T20:03:27.422Z,32.80
2019-05-16T20:05:57.100Z,36.50
2019-05-16T20:08:27.052Z,30.67
2019-05-16T20:10:56.740Z,45.17
2019-05-16T20:13:27.385Z,39.23
2019-05-16T20:15:57.240Z,31.57
2019-05-16T20:18:27.330Z,35.77
2019-05-16T20:20:57.087Z,37.40
2019-05-16T20:23:27.567Z,47.23
2019-05-16T20:25:57.493Z,41.77
2019-05-16T20:28:26.903Z,41.37
2019-05-16T20:30:57.059Z,41.37
2019-05-16T20:33:27.686Z,36.67
2019-05-16T20:35:57.637Z,45.00
2019-05-16T20:38:27.388Z,38.90
2019-05-16T20:40:59.929Z,34.10
2019-05-16T20:43:29.155Z,41.67
2019-05-16T20:46:00.462Z,37.93
2019-05-16T20:48:30.012Z,38.90
2019-05-16T20:50:59.391Z,39.13
2019-05-16T20:53:28.704Z,58.30
2019-05-16T20:55:59.667Z,41.67
2019-05-16T20:58:29.194Z,41.57
2019-05-16T21:01:01.495Z,40.90
2019-05-16T21:03:29.830Z,41.00
2019-05-16T21:05:59.345Z,44.00
2019-05-16T21:08:28.821Z,42.33
2019-05-16T21:10:58.439Z,42.17
2019-05-16T21:13:28.392Z,40.77
2019-05-16T21:15:57.891Z,41.27
2019-05-16T21:18:27.214Z,40.83
2019-05-16T21:20:57.434Z,38.97
2019-05-16T21:23:27.502Z,36.93
2019-05-16T21:25:57.299Z,41.50
2019-05-16T21:28:26.777Z,33.93
2019-05-16T21:30:56.854Z,40.53
2019-05-16T21:33:27.269Z,41.63
2019-05-16T21:35:56.868Z,52.30
2019-05-16T21:38:27.076Z,44.40
2019-05-16T21:40:58.388Z,46.47
2019-05-16T21:43:27.981Z,48.33
2019-05-16T21:45:57.468Z,37.60
2019-05-16T21:48:27.663Z,53.57
2019-05-16T21:50:57.465Z,42.27
2019-05-16T21:53:29.950Z,39.07
2019-05-16T21:55:58.181Z,40.20
2019-05-16T21:58:29.474Z,58.87
2019-05-16T22:01:00.053Z,57.23
2019-05-16T22:03:29.444Z,54.33
2019-05-16T22:05:59.134Z,50.00
2019-05-16T22:08:28.508Z,48.93
2019-05-16T22:10:57.921Z,45.33
2019-05-16T22:13:27.298Z,44.03
2019-05-16T22:15:57.065Z,46.20
2019-05-16T22:18:26.564Z,43.43
2019-05-16T22:21:03.467Z,39.77
2019-05-16T22:23:32.920Z,47.07
2019-05-16T22:26:02.384Z,40.43
2019-05-16T22:28:31.863Z,39.37
2019-05-16T22:31:01.335Z,44.87
2019-05-16T22:33:30.784Z,36.83
2019-05-16T22:36:03.158Z,47.50
2019-05-16T22:38:32.583Z,63.07
2019-05-16T22:41:02.072Z,59.97
2019-05-16T22:43:31.463Z,58.13
2019-05-16T22:46:01.015Z,46.20
2019-05-16T22:48:30.518Z,52.17
2019-05-16T22:50:59.920Z,49.60
2019-05-16T22:53:29.304Z,51.43
2019-05-16T22:55:58.871Z,45.10
2019-05-16T22:58:28.218Z,45.73
2019-05-16T23:00:57.969Z,42.83
2019-05-16T23:03:27.465Z,47.40
2019-05-16T23:05:56.850Z,41.37
2019-05-16T23:08:27.222Z,39.70
2019-05-16T23:10:56.979Z,40.30
2019-05-16T23:13:26.782Z,41.83
2019-05-16T23:15:57.177Z,41.23
2019-05-16T23:18:26.842Z,37.80
2019-05-16T23:20:56.945Z,41.90
2019-05-16T23:23:26.715Z,43.77
2019-05-16T23:25:56.931Z,37.57
2019-05-16T23:28:27.304Z,40.67
2019-05-16T23:30:57.780Z,41.70
2019-05-16T23:33:27.293Z,40.70
2019-05-16T23:36:08.890Z,37.23
2019-05-16T23:38:38.182Z,35.60
2019-05-16T23:41:07.775Z,38.40
2019-05-16T23:43:37.525Z,39.13
2019-05-16T23:46:07.220Z,34.63
2019-05-16T23:48:36.742Z,36.93
2019-05-16T23:51:07.885Z,35.73
2019-05-16T23:53:37.394Z,32.90
2019-05-16T23:56:07.541Z,36.73
2019-05-16T23:58:37.259Z,40.60
